sensor_id;sensor_type;location;lat;lon;timestamp;pressure;altitude;pressure_sealevel;temperature;humidity
64402;BME280;50724;42.376;23.768;2023-07-20T00:03:13;92964.66;;;21.20;62.36
64402;BME280;50724;42.376;23.768;2023-07-20T00:06:16;92959.09;;;21.21;61.69
64402;BME280;50724;42.376;23.768;2023-07-20T00:09:17;92952.78;;;21.51;60.49
64402;BME280;50724;42.376;23.768;2023-07-20T00:12:17;92963.75;;;21.66;59.27
64402;BME280;50724;42.376;23.768;2023-07-20T00:15:17;92952.63;;;21.69;59.15
64402;BME280;50724;42.376;23.768;2023-07-20T00:18:18;92938.94;;;21.77;59.41
64402;BME280;50724;42.376;23.768;2023-07-20T00:21:21;92944.22;;;21.49;60.88
64402;BME280;50724;42.376;23.768;2023-07-20T00:24:22;92946.34;;;21.35;60.82
64402;BME280;50724;42.376;23.768;2023-07-20T00:27:22;92946.91;;;21.49;59.87
64402;BME280;50724;42.376;23.768;2023-07-20T00:30:22;92945.47;;;21.58;59.20
64402;BME280;50724;42.376;23.768;2023-07-20T00:33:23;92936.56;;;21.52;59.25
64402;BME280;50724;42.376;23.768;2023-07-20T00:36:23;92941.13;;;21.52;59.15
64402;BME280;50724;42.376;23.768;2023-07-20T00:39:24;92936.09;;;21.55;58.96
64402;BME280;50724;42.376;23.768;2023-07-20T00:42:24;92922.75;;;21.67;59.57
64402;BME280;50724;42.376;23.768;2023-07-20T00:45:26;92921.22;;;21.82;58.91
64402;BME280;50724;42.376;23.768;2023-07-20T00:48:27;92918.66;;;21.87;59.19
64402;BME280;50724;42.376;23.768;2023-07-20T00:51:27;92919.84;;;21.80;60.26
64402;BME280;50724;42.376;23.768;2023-07-20T00:54:28;92912.81;;;21.62;61.11
64402;BME280;50724;42.376;23.768;2023-07-20T00:57:28;92908.50;;;21.45;61.69
64402;BME280;50724;42.376;23.768;2023-07-20T01:00:29;92899.97;;;21.19;63.69
64402;BME280;50724;42.376;23.768;2023-07-20T01:03:29;92902.22;;;20.65;66.05
64402;BME280;50724;42.376;23.768;2023-07-20T01:06:58;92905.00;;;20.58;66.60
64402;BME280;50724;42.376;23.768;2023-07-20T01:10:25;92901.53;;;20.58;66.77
64402;BME280;50724;42.376;23.768;2023-07-20T01:13:29;92900.16;;;20.67;67.96
64402;BME280;50724;42.376;23.768;2023-07-20T01:16:30;92897.25;;;20.56;67.70
64402;BME280;50724;42.376;23.768;2023-07-20T01:19:30;92892.97;;;20.32;68.30
64402;BME280;50724;42.376;23.768;2023-07-20T01:22:47;92887.53;;;20.27;67.99
64402;BME280;50724;42.376;23.768;2023-07-20T01:29:22;92881.69;;;19.54;71.61
64402;BME280;50724;42.376;23.768;2023-07-20T01:32:29;92876.59;;;19.53;70.40
64402;BME280;50724;42.376;23.768;2023-07-20T01:35:32;92869.78;;;19.27;71.78
64402;BME280;50724;42.376;23.768;2023-07-20T01:38:34;92866.66;;;19.48;69.60
64402;BME280;50724;42.376;23.768;2023-07-20T01:41:34;92869.63;;;19.81;67.06
64402;BME280;50724;42.376;23.768;2023-07-20T01:44:44;92868.22;;;20.20;64.34
64402;BME280;50724;42.376;23.768;2023-07-20T01:47:44;92873.22;;;20.40;63.46
64402;BME280;50724;42.376;23.768;2023-07-20T01:50:45;92872.06;;;20.24;64.64
64402;BME280;50724;42.376;23.768;2023-07-20T01:53:46;92870.88;;;20.20;64.21
64402;BME280;50724;42.376;23.768;2023-07-20T01:56:46;92869.16;;;20.26;65.76
64402;BME280;50724;42.376;23.768;2023-07-20T01:59:46;92870.75;;;20.15;67.03
64402;BME280;50724;42.376;23.768;2023-07-20T02:02:47;92867.47;;;19.78;68.89
64402;BME280;50724;42.376;23.768;2023-07-20T02:05:47;92865.31;;;19.09;71.10
64402;BME280;50724;42.376;23.768;2023-07-20T02:08:51;92861.94;;;18.84;71.89
64402;BME280;50724;42.376;23.768;2023-07-20T02:11:51;92855.16;;;18.88;70.98
64402;BME280;50724;42.376;23.768;2023-07-20T02:14:51;92866.78;;;19.05;70.46
64402;BME280;50724;42.376;23.768;2023-07-20T02:17:53;92874.50;;;19.07;70.24
64402;BME280;50724;42.376;23.768;2023-07-20T02:20:56;92869.69;;;19.15;70.39
64402;BME280;50724;42.376;23.768;2023-07-20T02:23:56;92868.28;;;19.31;71.51
64402;BME280;50724;42.376;23.768;2023-07-20T02:26:57;92871.50;;;19.03;72.58
64402;BME280;50724;42.376;23.768;2023-07-20T02:29:57;92860.53;;;18.82;73.17
64402;BME280;50724;42.376;23.768;2023-07-20T02:32:58;92867.25;;;18.84;72.57
64402;BME280;50724;42.376;23.768;2023-07-20T02:35:58;92860.91;;;18.85;72.35
64402;BME280;50724;42.376;23.768;2023-07-20T02:38:59;92870.16;;;18.94;71.91
64402;BME280;50724;42.376;23.768;2023-07-20T02:42:00;92861.91;;;19.02;71.19
64402;BME280;50724;42.376;23.768;2023-07-20T02:45:02;92863.09;;;19.06;69.75
64402;BME280;50724;42.376;23.768;2023-07-20T02:48:02;92854.63;;;18.98;71.32
64402;BME280;50724;42.376;23.768;2023-07-20T02:51:03;92843.44;;;18.96;71.88
64402;BME280;50724;42.376;23.768;2023-07-20T02:54:03;92853.25;;;18.95;71.11
64402;BME280;50724;42.376;23.768;2023-07-20T02:57:04;92854.78;;;19.03;70.85
64402;BME280;50724;42.376;23.768;2023-07-20T03:00:05;92848.22;;;18.87;70.23
64402;BME280;50724;42.376;23.768;2023-07-20T03:03:06;92836.22;;;19.03;69.07
64402;BME280;50724;42.376;23.768;2023-07-20T03:06:09;92826.69;;;19.13;68.81
64402;BME280;50724;42.376;23.768;2023-07-20T03:09:09;92838.72;;;18.98;70.04
64402;BME280;50724;42.376;23.768;2023-07-20T03:12:10;92847.50;;;18.98;70.87
64402;BME280;50724;42.376;23.768;2023-07-20T03:15:10;92840.28;;;18.87;71.11
64402;BME280;50724;42.376;23.768;2023-07-20T03:18:11;92843.06;;;18.92;70.57
64402;BME280;50724;42.376;23.768;2023-07-20T03:21:12;92844.72;;;18.93;70.24
64402;BME280;50724;42.376;23.768;2023-07-20T03:24:12;92843.06;;;19.10;69.51
64402;BME280;50724;42.376;23.768;2023-07-20T03:27:13;92843.19;;;19.15;70.26
64402;BME280;50724;42.376;23.768;2023-07-20T03:30:13;92835.22;;;19.15;70.71
64402;BME280;50724;42.376;23.768;2023-07-20T03:33:14;92832.84;;;19.26;69.97
64402;BME280;50724;42.376;23.768;2023-07-20T03:36:14;92839.78;;;19.45;69.50
64402;BME280;50724;42.376;23.768;2023-07-20T03:39:15;92834.94;;;19.53;68.52
64402;BME280;50724;42.376;23.768;2023-07-20T03:42:15;92842.19;;;19.46;69.18
64402;BME280;50724;42.376;23.768;2023-07-20T03:45:16;92844.56;;;19.66;68.74
64402;BME280;50724;42.376;23.768;2023-07-20T03:48:18;92850.19;;;19.99;67.33
64402;BME280;50724;42.376;23.768;2023-07-20T03:51:19;92846.47;;;20.00;68.82
64402;BME280;50724;42.376;23.768;2023-07-20T03:54:20;92843.72;;;20.07;70.30
64402;BME280;50724;42.376;23.768;2023-07-20T03:57:20;92845.00;;;20.16;69.89
64402;BME280;50724;42.376;23.768;2023-07-20T04:00:21;92846.75;;;20.45;68.35
64402;BME280;50724;42.376;23.768;2023-07-20T04:03:21;92848.50;;;20.51;68.02
64402;BME280;50724;42.376;23.768;2023-07-20T04:06:25;92839.69;;;20.85;68.26
64402;BME280;50724;42.376;23.768;2023-07-20T04:09:25;92847.31;;;20.93;67.83
64402;BME280;50724;42.376;23.768;2023-07-20T04:12:25;92840.72;;;21.07;68.51
64402;BME280;50724;42.376;23.768;2023-07-20T04:15:26;92845.50;;;21.22;68.64
64402;BME280;50724;42.376;23.768;2023-07-20T04:18:26;92845.09;;;21.42;68.28
64402;BME280;50724;42.376;23.768;2023-07-20T04:21:27;92854.63;;;21.82;66.69
64402;BME280;50724;42.376;23.768;2023-07-20T04:24:28;92857.22;;;22.39;64.78
64402;BME280;50724;42.376;23.768;2023-07-20T04:27:28;92853.13;;;24.26;57.38
64402;BME280;50724;42.376;23.768;2023-07-20T04:30:28;92853.53;;;25.90;50.08
64402;BME280;50724;42.376;23.768;2023-07-20T04:33:29;92855.94;;;27.13;47.98
64402;BME280;50724;42.376;23.768;2023-07-20T04:36:29;92854.94;;;27.78;43.63
64402;BME280;50724;42.376;23.768;2023-07-20T04:39:30;92861.28;;;29.08;41.69
64402;BME280;50724;42.376;23.768;2023-07-20T04:42:30;92856.50;;;29.00;40.86
64402;BME280;50724;42.376;23.768;2023-07-20T04:45:31;92862.31;;;29.88;39.08
64402;BME280;50724;42.376;23.768;2023-07-20T04:48:31;92871.94;;;30.69;38.75
64402;BME280;50724;42.376;23.768;2023-07-20T04:51:32;92861.03;;;32.34;36.68
64402;BME280;50724;42.376;23.768;2023-07-20T04:54:32;92863.53;;;32.80;36.40
64402;BME280;50724;42.376;23.768;2023-07-20T04:57:32;92859.38;;;33.97;33.97
64402;BME280;50724;42.376;23.768;2023-07-20T05:00:33;92860.97;;;34.63;32.42
64402;BME280;50724;42.376;23.768;2023-07-20T05:03:34;92854.25;;;34.69;30.26
64402;BME280;50724;42.376;23.768;2023-07-20T05:06:34;92859.69;;;35.11;30.02
64402;BME280;50724;42.376;23.768;2023-07-20T05:09:35;92865.72;;;35.17;30.28
64402;BME280;50724;42.376;23.768;2023-07-20T05:12:35;92868.16;;;35.73;29.90
64402;BME280;50724;42.376;23.768;2023-07-20T05:15:35;92865.19;;;35.41;29.12
64402;BME280;50724;42.376;23.768;2023-07-20T05:18:36;92876.09;;;35.41;30.14
64402;BME280;50724;42.376;23.768;2023-07-20T05:21:36;92864.78;;;34.87;30.37
64402;BME280;50724;42.376;23.768;2023-07-20T05:24:37;92859.50;;;33.52;32.88
64402;BME280;50724;42.376;23.768;2023-07-20T05:27:39;92865.44;;;32.79;34.74
64402;BME280;50724;42.376;23.768;2023-07-20T05:30:40;92859.19;;;31.80;37.26
64402;BME280;50724;42.376;23.768;2023-07-20T05:33:40;92860.56;;;30.91;38.58
64402;BME280;50724;42.376;23.768;2023-07-20T05:37:11;92868.47;;;30.31;39.50
64402;BME280;50724;42.376;23.768;2023-07-20T05:40:13;92864.03;;;29.03;43.64
64402;BME280;50724;42.376;23.768;2023-07-20T05:43:14;92858.47;;;28.61;44.33
64402;BME280;50724;42.376;23.768;2023-07-20T05:46:15;92854.03;;;27.92;46.44
64402;BME280;50724;42.376;23.768;2023-07-20T05:49:15;92858.88;;;27.95;46.65
64402;BME280;50724;42.376;23.768;2023-07-20T05:52:16;92858.22;;;28.19;46.03
64402;BME280;50724;42.376;23.768;2023-07-20T05:55:16;92855.63;;;27.99;46.81
64402;BME280;50724;42.376;23.768;2023-07-20T05:58:16;92848.53;;;28.23;47.17
64402;BME280;50724;42.376;23.768;2023-07-20T06:01:17;92842.38;;;28.17;47.71
64402;BME280;50724;42.376;23.768;2023-07-20T06:04:19;92843.94;;;28.62;46.41
64402;BME280;50724;42.376;23.768;2023-07-20T06:07:19;92840.50;;;28.18;47.43
64402;BME280;50724;42.376;23.768;2023-07-20T06:10:20;92850.81;;;28.39;45.93
64402;BME280;50724;42.376;23.768;2023-07-20T06:13:20;92856.53;;;28.28;47.08
64402;BME280;50724;42.376;23.768;2023-07-20T06:16:20;92853.97;;;27.54;47.88
64402;BME280;50724;42.376;23.768;2023-07-20T06:19:21;92836.97;;;27.68;46.67
64402;BME280;50724;42.376;23.768;2023-07-20T06:22:22;92857.81;;;27.38;47.26
64402;BME280;50724;42.376;23.768;2023-07-20T06:25:23;92856.69;;;27.49;47.74
64402;BME280;50724;42.376;23.768;2023-07-20T06:28:23;92848.03;;;27.62;47.20
64402;BME280;50724;42.376;23.768;2023-07-20T06:31:24;92844.38;;;27.91;45.11
64402;BME280;50724;42.376;23.768;2023-07-20T06:34:24;92848.53;;;28.23;44.72
64402;BME280;50724;42.376;23.768;2023-07-20T06:37:24;92841.25;;;28.23;45.03
64402;BME280;50724;42.376;23.768;2023-07-20T06:40:25;92834.72;;;28.34;45.83
64402;BME280;50724;42.376;23.768;2023-07-20T06:43:25;92837.41;;;28.68;46.26
64402;BME280;50724;42.376;23.768;2023-07-20T06:46:26;92840.03;;;29.07;45.49
64402;BME280;50724;42.376;23.768;2023-07-20T06:49:27;92834.41;;;29.32;44.26
64402;BME280;50724;42.376;23.768;2023-07-20T06:52:27;92834.41;;;29.32;44.63
64402;BME280;50724;42.376;23.768;2023-07-20T06:55:29;92838.38;;;29.11;44.36
64402;BME280;50724;42.376;23.768;2023-07-20T06:58:29;92840.41;;;29.24;44.67
64402;BME280;50724;42.376;23.768;2023-07-20T07:01:29;92833.94;;;29.49;43.73
64402;BME280;50724;42.376;23.768;2023-07-20T07:04:30;92828.56;;;29.91;43.98
64402;BME280;50724;42.376;23.768;2023-07-20T07:07:31;92832.72;;;30.21;42.51
64402;BME280;50724;42.376;23.768;2023-07-20T07:10:40;92837.34;;;30.39;41.96
64402;BME280;50724;42.376;23.768;2023-07-20T07:13:41;92831.72;;;30.35;42.45
64402;BME280;50724;42.376;23.768;2023-07-20T07:16:41;92830.47;;;30.09;41.60
64402;BME280;50724;42.376;23.768;2023-07-20T07:19:42;92830.53;;;30.41;40.37
64402;BME280;50724;42.376;23.768;2023-07-20T07:22:42;92835.06;;;30.27;40.56
64402;BME280;50724;42.376;23.768;2023-07-20T07:25:44;92841.72;;;30.35;40.78
64402;BME280;50724;42.376;23.768;2023-07-20T07:28:44;92836.75;;;30.74;40.44
64402;BME280;50724;42.376;23.768;2023-07-20T07:31:53;92841.41;;;31.06;37.53
64402;BME280;50724;42.376;23.768;2023-07-20T07:34:53;92848.19;;;31.03;39.10
64402;BME280;50724;42.376;23.768;2023-07-20T07:37:54;92847.06;;;30.91;38.21
64402;BME280;50724;42.376;23.768;2023-07-20T07:40:54;92853.94;;;31.29;39.73
64402;BME280;50724;42.376;23.768;2023-07-20T07:43:55;92857.31;;;31.21;40.51
64402;BME280;50724;42.376;23.768;2023-07-20T07:46:55;92856.91;;;31.14;40.90
64402;BME280;50724;42.376;23.768;2023-07-20T07:49:56;92863.50;;;31.08;41.35
64402;BME280;50724;42.376;23.768;2023-07-20T07:52:57;92866.19;;;30.76;41.08
64402;BME280;50724;42.376;23.768;2023-07-20T07:55:58;92853.94;;;30.65;43.90
64402;BME280;50724;42.376;23.768;2023-07-20T07:58:58;92862.72;;;30.19;42.10
64402;BME280;50724;42.376;23.768;2023-07-20T08:01:58;92861.75;;;29.20;41.80
64402;BME280;50724;42.376;23.768;2023-07-20T08:04:59;92866.16;;;28.78;45.62
64402;BME280;50724;42.376;23.768;2023-07-20T08:08:03;92865.59;;;28.42;45.90
64402;BME280;50724;42.376;23.768;2023-07-20T08:11:04;92872.69;;;28.28;47.66
64402;BME280;50724;42.376;23.768;2023-07-20T08:14:05;92862.50;;;28.64;45.52
64402;BME280;50724;42.376;23.768;2023-07-20T08:17:05;92845.72;;;28.38;46.73
64402;BME280;50724;42.376;23.768;2023-07-20T08:20:06;92872.94;;;28.31;49.16
64402;BME280;50724;42.376;23.768;2023-07-20T08:23:06;92858.38;;;28.32;47.96
64402;BME280;50724;42.376;23.768;2023-07-20T08:26:07;92845.66;;;28.48;47.82
64402;BME280;50724;42.376;23.768;2023-07-20T08:29:07;92837.56;;;28.48;46.01
64402;BME280;50724;42.376;23.768;2023-07-20T08:32:08;92835.16;;;28.80;42.68
64402;BME280;50724;42.376;23.768;2023-07-20T08:35:08;92832.69;;;29.12;42.36
64402;BME280;50724;42.376;23.768;2023-07-20T08:38:09;92822.81;;;29.03;45.64
64402;BME280;50724;42.376;23.768;2023-07-20T08:41:09;92825.56;;;29.92;43.47
64402;BME280;50724;42.376;23.768;2023-07-20T08:44:10;92830.38;;;29.77;42.45
64402;BME280;50724;42.376;23.768;2023-07-20T08:47:12;92836.09;;;29.70;42.99
64402;BME280;50724;42.376;23.768;2023-07-20T08:50:14;92845.78;;;29.71;43.51
64402;BME280;50724;42.376;23.768;2023-07-20T08:53:15;92844.00;;;29.85;42.66
64402;BME280;50724;42.376;23.768;2023-07-20T08:56:16;92834.53;;;29.64;44.33
64402;BME280;50724;42.376;23.768;2023-07-20T08:59:19;92826.94;;;29.90;41.31
64402;BME280;50724;42.376;23.768;2023-07-20T09:02:22;92818.47;;;29.54;41.31
64402;BME280;50724;42.376;23.768;2023-07-20T09:05:26;92821.97;;;29.55;40.88
64402;BME280;50724;42.376;23.768;2023-07-20T09:08:26;92822.53;;;29.75;40.04
64402;BME280;50724;42.376;23.768;2023-07-20T09:11:27;92820.13;;;29.74;39.44
64402;BME280;50724;42.376;23.768;2023-07-20T09:14:30;92831.63;;;29.61;39.97
64402;BME280;50724;42.376;23.768;2023-07-20T09:17:31;92828.03;;;28.94;40.53
64402;BME280;50724;42.376;23.768;2023-07-20T09:20:32;92823.72;;;29.22;39.91
64402;BME280;50724;42.376;23.768;2023-07-20T09:23:38;92831.28;;;29.20;40.27
64402;BME280;50724;42.376;23.768;2023-07-20T09:26:47;92826.47;;;29.12;40.01
64402;BME280;50724;42.376;23.768;2023-07-20T09:29:51;92820.78;;;29.66;39.32
64402;BME280;50724;42.376;23.768;2023-07-20T09:32:52;92809.25;;;29.60;38.99
64402;BME280;50724;42.376;23.768;2023-07-20T09:35:52;92799.09;;;29.94;38.58
64402;BME280;50724;42.376;23.768;2023-07-20T09:38:53;92802.97;;;30.07;37.66
64402;BME280;50724;42.376;23.768;2023-07-20T09:41:53;92805.44;;;28.90;40.07
64402;BME280;50724;42.376;23.768;2023-07-20T09:44:53;92808.75;;;28.82;41.75
64402;BME280;50724;42.376;23.768;2023-07-20T09:48:03;92805.47;;;29.14;42.00
64402;BME280;50724;42.376;23.768;2023-07-20T09:51:04;92817.66;;;29.06;41.92
64402;BME280;50724;42.376;23.768;2023-07-20T09:54:07;92821.06;;;29.41;41.98
64402;BME280;50724;42.376;23.768;2023-07-20T09:57:07;92813.41;;;29.29;42.21
64402;BME280;50724;42.376;23.768;2023-07-20T10:00:12;92787.13;;;29.16;43.33
64402;BME280;50724;42.376;23.768;2023-07-20T10:03:18;92784.03;;;29.04;43.00
64402;BME280;50724;42.376;23.768;2023-07-20T10:06:24;92794.94;;;29.41;42.84
64402;BME280;50724;42.376;23.768;2023-07-20T10:09:24;92800.88;;;29.38;43.09
64402;BME280;50724;42.376;23.768;2023-07-20T10:12:27;92793.59;;;29.62;42.49
64402;BME280;50724;42.376;23.768;2023-07-20T10:15:33;92806.25;;;28.91;43.72
64402;BME280;50724;42.376;23.768;2023-07-20T10:18:42;92803.44;;;28.43;44.40
64402;BME280;50724;42.376;23.768;2023-07-20T10:21:57;92796.44;;;28.42;45.59
64402;BME280;50724;42.376;23.768;2023-07-20T10:25:00;92801.19;;;28.22;44.31
64402;BME280;50724;42.376;23.768;2023-07-20T10:28:01;92796.69;;;28.12;45.28
64402;BME280;50724;42.376;23.768;2023-07-20T10:31:02;92798.78;;;28.20;43.47
64402;BME280;50724;42.376;23.768;2023-07-20T10:34:04;92794.91;;;28.31;44.50
64402;BME280;50724;42.376;23.768;2023-07-20T10:37:05;92796.94;;;28.78;43.46
64402;BME280;50724;42.376;23.768;2023-07-20T10:40:33;92793.00;;;29.23;43.03
64402;BME280;50724;42.376;23.768;2023-07-20T10:43:34;92789.34;;;29.38;40.69
64402;BME280;50724;42.376;23.768;2023-07-20T10:46:46;92796.72;;;29.27;40.55
64402;BME280;50724;42.376;23.768;2023-07-20T10:49:59;92794.88;;;30.26;39.10
64402;BME280;50724;42.376;23.768;2023-07-20T10:53:18;92793.03;;;29.65;40.50
64402;BME280;50724;42.376;23.768;2023-07-20T10:56:20;92788.81;;;29.78;41.25
64402;BME280;50724;42.376;23.768;2023-07-20T11:02:24;92809.19;;;29.89;41.77
64402;BME280;50724;42.376;23.768;2023-07-20T11:05:38;92790.03;;;29.67;41.07
64402;BME280;50724;42.376;23.768;2023-07-20T11:08:40;92794.50;;;30.14;39.16
64402;BME280;50724;42.376;23.768;2023-07-20T11:11:46;92810.25;;;30.25;38.55
64402;BME280;50724;42.376;23.768;2023-07-20T11:14:55;92790.72;;;30.15;40.14
64402;BME280;50724;42.376;23.768;2023-07-20T11:18:11;92791.75;;;30.37;38.97
64402;BME280;50724;42.376;23.768;2023-07-20T11:21:12;92806.63;;;29.98;40.21
64402;BME280;50724;42.376;23.768;2023-07-20T11:24:13;92793.81;;;29.66;40.01
64402;BME280;50724;42.376;23.768;2023-07-20T11:27:13;92796.91;;;29.97;39.82
64402;BME280;50724;42.376;23.768;2023-07-20T11:30:17;92795.16;;;30.75;39.10
64402;BME280;50724;42.376;23.768;2023-07-20T11:33:18;92776.13;;;31.12;37.95
64402;BME280;50724;42.376;23.768;2023-07-20T11:36:18;92771.34;;;31.64;36.83
64402;BME280;50724;42.376;23.768;2023-07-20T11:39:21;92771.03;;;31.52;36.22
64402;BME280;50724;42.376;23.768;2023-07-20T11:42:21;92755.63;;;31.52;36.33
64402;BME280;50724;42.376;23.768;2023-07-20T11:45:22;92749.13;;;31.12;37.95
64402;BME280;50724;42.376;23.768;2023-07-20T11:48:22;92727.81;;;30.01;38.86
64402;BME280;50724;42.376;23.768;2023-07-20T11:51:23;92715.84;;;30.07;38.30
64402;BME280;50724;42.376;23.768;2023-07-20T11:54:24;92728.13;;;30.31;39.15
64402;BME280;50724;42.376;23.768;2023-07-20T11:57:25;92716.69;;;30.21;39.13
64402;BME280;50724;42.376;23.768;2023-07-20T12:00:26;92723.94;;;30.71;38.94
64402;BME280;50724;42.376;23.768;2023-07-20T12:03:26;92724.31;;;30.32;39.58
64402;BME280;50724;42.376;23.768;2023-07-20T12:06:27;92720.16;;;29.89;40.85
64402;BME280;50724;42.376;23.768;2023-07-20T12:09:28;92715.09;;;30.20;39.74
64402;BME280;50724;42.376;23.768;2023-07-20T12:12:31;92710.69;;;30.56;39.80
64402;BME280;50724;42.376;23.768;2023-07-20T12:15:32;92703.44;;;30.70;38.95
64402;BME280;50724;42.376;23.768;2023-07-20T12:18:35;92698.25;;;30.74;38.40
64402;BME280;50724;42.376;23.768;2023-07-20T12:21:37;92712.84;;;30.86;38.06
64402;BME280;50724;42.376;23.768;2023-07-20T12:24:38;92697.97;;;30.89;37.72
64402;BME280;50724;42.376;23.768;2023-07-20T12:27:38;92690.75;;;31.25;38.02
64402;BME280;50724;42.376;23.768;2023-07-20T12:30:39;92690.63;;;31.93;37.32
64402;BME280;50724;42.376;23.768;2023-07-20T12:33:40;92689.84;;;31.43;37.42
64402;BME280;50724;42.376;23.768;2023-07-20T12:36:50;92680.41;;;31.41;38.62
64402;BME280;50724;42.376;23.768;2023-07-20T12:39:51;92682.03;;;31.14;37.40
64402;BME280;50724;42.376;23.768;2023-07-20T12:42:51;92683.59;;;31.56;36.88
64402;BME280;50724;42.376;23.768;2023-07-20T12:45:52;92682.44;;;31.21;37.12
64402;BME280;50724;42.376;23.768;2023-07-20T12:48:52;92672.59;;;31.53;37.33
64402;BME280;50724;42.376;23.768;2023-07-20T12:51:53;92681.31;;;31.50;36.51
64402;BME280;50724;42.376;23.768;2023-07-20T12:54:54;92676.88;;;31.89;35.25
64402;BME280;50724;42.376;23.768;2023-07-20T12:57:54;92668.84;;;31.98;35.54
64402;BME280;50724;42.376;23.768;2023-07-20T13:00:55;92660.09;;;31.79;35.79
64402;BME280;50724;42.376;23.768;2023-07-20T13:03:55;92659.47;;;31.33;36.19
64402;BME280;50724;42.376;23.768;2023-07-20T13:06:55;92663.22;;;31.72;36.38
64402;BME280;50724;42.376;23.768;2023-07-20T13:09:59;92661.16;;;31.06;36.40
64402;BME280;50724;42.376;23.768;2023-07-20T13:13:08;92640.97;;;31.53;34.62
64402;BME280;50724;42.376;23.768;2023-07-20T13:16:09;92657.81;;;31.72;35.32
64402;BME280;50724;42.376;23.768;2023-07-20T13:19:18;92652.88;;;31.39;35.94
64402;BME280;50724;42.376;23.768;2023-07-20T13:22:18;92654.59;;;31.35;34.37
64402;BME280;50724;42.376;23.768;2023-07-20T13:25:19;92655.38;;;31.35;34.65
64402;BME280;50724;42.376;23.768;2023-07-20T13:28:20;92656.81;;;31.19;33.74
64402;BME280;50724;42.376;23.768;2023-07-20T13:31:20;92649.69;;;31.50;33.82
64402;BME280;50724;42.376;23.768;2023-07-20T13:34:21;92646.44;;;31.84;33.81
64402;BME280;50724;42.376;23.768;2023-07-20T13:37:21;92649.91;;;31.26;32.70
64402;BME280;50724;42.376;23.768;2023-07-20T13:40:22;92647.31;;;31.21;33.96
64402;BME280;50724;42.376;23.768;2023-07-20T13:43:23;92642.50;;;31.18;34.18
64402;BME280;50724;42.376;23.768;2023-07-20T13:46:23;92634.22;;;30.88;34.65
64402;BME280;50724;42.376;23.768;2023-07-20T13:49:24;92644.75;;;30.89;34.28
64402;BME280;50724;42.376;23.768;2023-07-20T13:52:24;92646.03;;;31.05;34.59
64402;BME280;50724;42.376;23.768;2023-07-20T13:55:24;92641.59;;;31.09;34.18
64402;BME280;50724;42.376;23.768;2023-07-20T13:58:25;92637.44;;;30.90;34.28
64402;BME280;50724;42.376;23.768;2023-07-20T14:01:25;92643.63;;;31.17;34.37
64402;BME280;50724;42.376;23.768;2023-07-20T14:04:28;92640.22;;;30.85;34.46
64402;BME280;50724;42.376;23.768;2023-07-20T14:07:29;92643.00;;;30.80;33.91
64402;BME280;50724;42.376;23.768;2023-07-20T14:10:29;92636.41;;;30.58;33.90
64402;BME280;50724;42.376;23.768;2023-07-20T14:13:29;92645.00;;;30.74;33.85
64402;BME280;50724;42.376;23.768;2023-07-20T14:16:31;92644.75;;;30.89;33.74
64402;BME280;50724;42.376;23.768;2023-07-20T14:19:32;92638.19;;;30.77;33.45
64402;BME280;50724;42.376;23.768;2023-07-20T14:22:33;92644.19;;;30.60;32.84
64402;BME280;50724;42.376;23.768;2023-07-20T14:25:33;92641.72;;;30.50;33.21
64402;BME280;50724;42.376;23.768;2023-07-20T14:28:34;92637.81;;;30.56;33.80
64402;BME280;50724;42.376;23.768;2023-07-20T14:31:34;92635.09;;;30.56;33.78
64402;BME280;50724;42.376;23.768;2023-07-20T14:34:35;92636.19;;;30.09;34.32
64402;BME280;50724;42.376;23.768;2023-07-20T14:37:35;92623.59;;;30.50;34.13
64402;BME280;50724;42.376;23.768;2023-07-20T14:40:35;92632.72;;;30.68;33.69
64402;BME280;50724;42.376;23.768;2023-07-20T14:43:36;92645.50;;;30.76;33.62
64402;BME280;50724;42.376;23.768;2023-07-20T14:46:36;92652.13;;;30.70;33.41
64402;BME280;50724;42.376;23.768;2023-07-20T14:49:37;92647.78;;;30.55;33.79
64402;BME280;50724;42.376;23.768;2023-07-20T14:52:37;92645.06;;;31.37;32.73
64402;BME280;50724;42.376;23.768;2023-07-20T14:55:38;92646.97;;;31.72;32.33
64402;BME280;50724;42.376;23.768;2023-07-20T14:58:38;92653.47;;;31.85;32.46
64402;BME280;50724;42.376;23.768;2023-07-20T15:01:39;92647.72;;;31.64;33.24
64402;BME280;50724;42.376;23.768;2023-07-20T15:04:49;92641.06;;;32.59;32.39
64402;BME280;50724;42.376;23.768;2023-07-20T15:07:50;92661.50;;;32.43;32.35
64402;BME280;50724;42.376;23.768;2023-07-20T15:10:50;92672.63;;;32.33;31.94
64402;BME280;50724;42.376;23.768;2023-07-20T15:13:51;92664.97;;;31.90;31.69
64402;BME280;50724;42.376;23.768;2023-07-20T15:16:51;92661.94;;;31.20;31.91
64402;BME280;50724;42.376;23.768;2023-07-20T15:19:51;92659.31;;;31.78;31.42
64402;BME280;50724;42.376;23.768;2023-07-20T15:22:52;92662.16;;;32.18;30.19
64402;BME280;50724;42.376;23.768;2023-07-20T15:25:52;92669.22;;;32.05;30.46
64402;BME280;50724;42.376;23.768;2023-07-20T15:28:53;92663.19;;;31.50;31.54
64402;BME280;50724;42.376;23.768;2023-07-20T15:31:53;92674.44;;;31.44;31.13
64402;BME280;50724;42.376;23.768;2023-07-20T15:34:53;92662.44;;;31.72;31.45
64402;BME280;50724;42.376;23.768;2023-07-20T15:37:54;92668.09;;;31.84;30.98
64402;BME280;50724;42.376;23.768;2023-07-20T15:40:54;92657.88;;;31.81;30.90
64402;BME280;50724;42.376;23.768;2023-07-20T15:43:56;92666.84;;;31.05;31.93
64402;BME280;50724;42.376;23.768;2023-07-20T15:46:57;92678.63;;;31.50;31.70
64402;BME280;50724;42.376;23.768;2023-07-20T15:49:57;92680.75;;;32.11;31.23
64402;BME280;50724;42.376;23.768;2023-07-20T15:52:58;92677.50;;;31.86;31.68
64402;BME280;50724;42.376;23.768;2023-07-20T15:55:58;92679.09;;;31.52;31.86
64402;BME280;50724;42.376;23.768;2023-07-20T15:58:59;92679.34;;;31.01;32.89